createdAt,value
2024-01-16T00:00:18.549Z,95090.00
2024-01-16T00:01:18.556Z,95091.00
2024-01-16T00:02:18.591Z,95093.00
2024-01-16T00:03:18.526Z,95095.00
2024-01-16T00:04:18.592Z,95096.00
2024-01-16T00:05:18.561Z,95096.00
2024-01-16T00:06:18.547Z,95095.00
2024-01-16T00:07:18.591Z,95094.00
2024-01-16T00:08:18.575Z,95093.00
2024-01-16T00:09:18.531Z,95093.00
2024-01-16T00:10:18.556Z,95092.00
2024-01-16T00:11:18.615Z,95091.00
2024-01-16T00:12:18.554Z,95091.00
2024-01-16T00:13:18.530Z,95093.00
2024-01-16T00:14:18.584Z,95093.00
2024-01-16T00:15:18.543Z,95093.00
2024-01-16T00:16:18.551Z,95094.00
2024-01-16T00:17:18.571Z,95098.00
2024-01-16T00:18:18.713Z,95103.00
2024-01-16T00:19:18.644Z,95103.00
2024-01-16T00:20:18.599Z,95107.00
2024-01-16T00:21:18.572Z,95108.00
2024-01-16T00:22:18.579Z,95108.00
2024-01-16T00:23:18.664Z,95107.00
2024-01-16T00:24:18.704Z,95108.00
2024-01-16T00:25:18.742Z,95108.00
2024-01-16T00:26:18.828Z,95110.00
2024-01-16T00:27:18.866Z,95110.00
2024-01-16T00:28:18.922Z,95110.00
2024-01-16T00:29:19.088Z,95113.00
2024-01-16T00:30:19.057Z,95115.00
2024-01-16T00:31:19.093Z,95121.00
2024-01-16T00:32:19.193Z,95124.00
2024-01-16T00:33:19.333Z,95125.00
2024-01-16T00:34:19.300Z,95125.00
2024-01-16T00:35:19.352Z,95125.00
2024-01-16T00:36:19.388Z,95125.00
2024-01-16T00:37:19.448Z,95129.00
2024-01-16T00:38:19.570Z,95129.00
2024-01-16T00:39:19.587Z,95131.00
2024-01-16T00:40:19.668Z,95132.00
2024-01-16T00:41:19.760Z,95134.00
2024-01-16T00:42:19.786Z,95131.00
2024-01-16T00:43:19.861Z,95131.00
2024-01-16T00:44:19.988Z,95133.00
2024-01-16T00:45:19.974Z,95134.00
2024-01-16T00:46:20.083Z,95133.00
2024-01-16T00:47:20.144Z,95137.00
2024-01-16T00:48:20.278Z,95138.00
2024-01-16T00:49:22.001Z,95140.00
2024-01-16T00:50:20.361Z,95141.00
2024-01-16T00:51:20.390Z,95145.00
2024-01-16T00:52:20.439Z,95146.00
2024-01-16T00:53:20.519Z,95146.00
2024-01-16T00:54:20.585Z,95146.00
2024-01-16T00:55:20.638Z,95144.00
2024-01-16T00:56:20.802Z,95146.00
2024-01-16T00:57:20.766Z,95149.00
2024-01-16T00:58:20.841Z,95148.00
2024-01-16T00:59:20.940Z,95148.00
2024-01-16T01:00:20.966Z,95149.00
2024-01-16T01:01:21.062Z,95149.00
2024-01-16T01:02:21.102Z,95150.00
2024-01-16T01:03:21.187Z,95151.00
2024-01-16T01:04:21.214Z,95151.00
2024-01-16T01:05:21.365Z,95152.00
2024-01-16T01:06:21.444Z,95152.00
2024-01-16T01:07:21.402Z,95153.00
2024-01-16T01:08:21.513Z,95155.00
2024-01-16T01:09:21.553Z,95161.00
2024-01-16T01:10:21.693Z,95162.00
2024-01-16T01:11:21.723Z,95165.00
2024-01-16T01:12:21.772Z,95168.00
2024-01-16T01:13:21.842Z,95170.00
2024-01-16T01:14:22.012Z,95169.00
2024-01-16T01:15:22.002Z,95170.00
2024-01-16T01:16:22.180Z,95170.00
2024-01-16T01:17:22.184Z,95174.00
2024-01-16T01:18:22.280Z,95174.00
2024-01-16T01:19:22.334Z,95177.00
2024-01-16T01:20:22.441Z,95180.00
2024-01-16T01:21:22.417Z,95180.00
2024-01-16T01:22:22.467Z,95180.00
2024-01-16T01:23:22.555Z,95182.00
2024-01-16T01:24:22.625Z,95180.00
2024-01-16T01:25:22.669Z,95180.00
2024-01-16T01:26:22.807Z,95178.00
2024-01-16T01:27:22.830Z,95175.00
2024-01-16T01:28:22.885Z,95179.00
2024-01-16T01:29:22.978Z,95180.00
2024-01-16T01:30:23.074Z,95183.00
2024-01-16T01:31:23.089Z,95187.00
2024-01-16T01:32:23.382Z,95189.00
2024-01-16T01:33:23.497Z,95190.00
2024-01-16T01:34:23.387Z,95189.00
2024-01-16T01:35:23.439Z,95188.00
2024-01-16T01:36:23.446Z,95187.00
2024-01-16T01:37:23.516Z,95192.00
2024-01-16T01:38:23.648Z,95189.00
2024-01-16T01:39:23.689Z,95191.00
2024-01-16T01:40:23.730Z,95191.00
2024-01-16T01:41:23.833Z,95192.00
2024-01-16T01:42:23.857Z,95192.00
2024-01-16T01:43:23.917Z,95191.00
2024-01-16T01:44:24.001Z,95187.00
2024-01-16T01:45:24.049Z,95187.00
2024-01-16T01:46:24.093Z,95190.00
2024-01-16T01:47:24.231Z,95191.00
2024-01-16T01:48:24.362Z,95190.00
2024-01-16T01:49:24.361Z,95188.00
2024-01-16T01:50:24.398Z,95191.00
2024-01-16T01:51:24.430Z,95194.00
2024-01-16T01:52:24.481Z,95191.00
2024-01-16T01:53:24.628Z,95188.00
2024-01-16T01:54:24.600Z,95187.00
2024-01-16T01:55:24.686Z,95187.00
2024-01-16T01:56:24.807Z,95183.00
2024-01-16T01:57:24.831Z,95182.00
2024-01-16T01:58:24.885Z,95180.00
2024-01-16T01:59:24.993Z,95178.00
2024-01-16T02:00:25.016Z,95179.00
2024-01-16T02:01:25.095Z,95180.00
2024-01-16T02:02:25.198Z,95181.00
2024-01-16T02:03:25.235Z,95186.00
2024-01-16T02:04:25.306Z,95189.00
2024-01-16T02:05:25.497Z,95192.00
2024-01-16T02:06:25.469Z,95191.00
2024-01-16T02:07:25.501Z,95193.00
2024-01-16T02:08:25.583Z,95189.00
2024-01-16T02:09:25.622Z,95189.00
2024-01-16T02:10:25.718Z,95189.00
2024-01-16T02:11:25.816Z,95190.00
2024-01-16T02:12:26.136Z,95192.00
2024-01-16T02:13:25.909Z,95191.00
2024-01-16T02:14:26.093Z,95192.00
2024-01-16T02:15:26.021Z,95195.00
2024-01-16T02:16:26.055Z,95196.00
2024-01-16T02:17:26.144Z,95202.00
2024-01-16T02:18:26.179Z,95205.00
2024-01-16T02:19:26.313Z,95207.00
2024-01-16T02:20:26.334Z,95205.00
2024-01-16T02:21:26.386Z,95209.00
2024-01-16T02:22:26.423Z,95211.00
2024-01-16T02:23:26.526Z,95212.00
2024-01-16T02:24:26.554Z,95213.00
2024-01-16T02:25:26.639Z,95211.00
2024-01-16T02:26:26.805Z,95211.00
2024-01-16T02:27:26.759Z,95211.00
2024-01-16T02:28:26.810Z,95213.00
2024-01-16T02:29:26.888Z,95212.00
2024-01-16T02:30:26.933Z,95212.00
2024-01-16T02:31:37.058Z,95212.00
2024-01-16T02:32:27.043Z,95213.00
2024-01-16T02:33:27.117Z,95214.00
2024-01-16T02:34:26.982Z,95214.00
2024-01-16T02:35:26.994Z,95212.00
2024-01-16T02:36:26.963Z,95212.00
2024-01-16T02:37:26.960Z,95211.00
2024-01-16T02:38:26.976Z,95213.00
2024-01-16T02:39:26.952Z,95213.00
2024-01-16T02:40:26.943Z,95215.00
2024-01-16T02:41:26.971Z,95217.00
2024-01-16T02:42:26.960Z,95216.00
2024-01-16T02:43:26.971Z,95219.00
2024-01-16T02:44:27.050Z,95219.00
2024-01-16T02:45:26.967Z,95221.00
2024-01-16T02:46:26.955Z,95224.00
2024-01-16T02:47:27.024Z,95224.00
2024-01-16T02:48:27.074Z,95224.00
2024-01-16T02:49:27.283Z,95222.00
2024-01-16T02:50:27.004Z,95224.00
2024-01-16T02:51:27.062Z,95224.00
2024-01-16T02:52:27.032Z,95226.00
2024-01-16T02:53:27.190Z,95230.00
2024-01-16T02:54:27.199Z,95233.00
2024-01-16T02:55:27.275Z,95236.00
2024-01-16T02:56:27.351Z,95237.00
2024-01-16T02:57:27.398Z,95238.00
2024-01-16T02:58:27.454Z,95238.00
2024-01-16T02:59:27.551Z,95237.00
2024-01-16T03:00:27.576Z,95238.00
2024-01-16T03:01:27.656Z,95237.00
2024-01-16T03:02:27.766Z,95240.00
2024-01-16T03:03:27.901Z,95242.00
2024-01-16T03:04:27.836Z,95244.00
2024-01-16T03:05:27.987Z,95243.00
2024-01-16T03:06:28.070Z,95243.00
2024-01-16T03:07:28.047Z,95244.00
2024-01-16T03:08:28.133Z,95241.00
2024-01-16T03:09:28.159Z,95244.00
2024-01-16T03:10:28.283Z,95245.00
2024-01-16T03:11:29.627Z,95246.00
2024-01-16T03:12:28.347Z,95248.00
2024-01-16T03:13:28.414Z,95250.00
2024-01-16T03:14:28.501Z,95250.00
2024-01-16T03:15:28.534Z,95248.00
2024-01-16T03:16:28.616Z,95249.00
2024-01-16T03:17:28.724Z,95249.00
2024-01-16T03:18:28.961Z,95250.00
2024-01-16T03:19:33.931Z,95249.00
2024-01-16T03:20:28.770Z,95249.00
2024-01-16T03:21:28.759Z,95251.00
2024-01-16T03:22:28.753Z,95250.00
2024-01-16T03:23:28.813Z,95251.00
2024-01-16T03:24:28.774Z,95249.00
2024-01-16T03:25:28.766Z,95250.00
2024-01-16T03:26:28.796Z,95252.00
2024-01-16T03:27:28.840Z,95253.00
2024-01-16T03:28:28.858Z,95252.00
2024-01-16T03:29:29.046Z,95251.00
2024-01-16T03:30:29.148Z,95250.00
2024-01-16T03:31:29.158Z,95249.00
2024-01-16T03:32:29.117Z,95252.00
2024-01-16T03:33:29.181Z,95253.00
2024-01-16T03:34:29.249Z,95251.00
2024-01-16T03:35:29.183Z,95254.00
2024-01-16T03:36:29.232Z,95256.00
2024-01-16T03:37:29.272Z,95256.00
2024-01-16T03:38:29.329Z,95255.00
2024-01-16T03:39:29.388Z,95254.00
2024-01-16T03:40:29.400Z,95254.00
2024-01-16T03:41:29.452Z,95255.00
2024-01-16T03:42:29.471Z,95257.00
2024-01-16T03:43:29.530Z,95257.00
2024-01-16T03:44:29.565Z,95258.00
2024-01-16T03:45:29.596Z,95255.00
2024-01-16T03:46:29.629Z,95257.00
2024-01-16T03:47:29.748Z,95257.00
2024-01-16T03:48:29.816Z,95257.00
2024-01-16T03:49:29.810Z,95256.00
2024-01-16T03:50:29.814Z,95258.00
2024-01-16T03:51:29.814Z,95257.00
2024-01-16T03:52:29.830Z,95258.00
2024-01-16T03:53:29.917Z,95260.00
2024-01-16T03:54:29.884Z,95260.00
2024-01-16T03:55:29.938Z,95261.00
2024-01-16T03:56:29.995Z,95260.00
2024-01-16T03:57:29.989Z,95261.00
2024-01-16T03:58:30.010Z,95261.00
2024-01-16T03:59:30.059Z,95261.00
2024-01-16T04:00:30.120Z,95261.00
2024-01-16T04:01:30.105Z,95259.00
2024-01-16T04:02:30.261Z,95259.00
2024-01-16T04:03:30.200Z,95259.00
2024-01-16T04:04:30.180Z,95260.00
2024-01-16T04:05:30.279Z,95262.00
2024-01-16T04:06:30.395Z,95262.00
2024-01-16T04:07:30.272Z,95262.00
2024-01-16T04:08:30.332Z,95261.00
2024-01-16T04:09:30.309Z,95260.00
2024-01-16T04:10:30.332Z,95261.00
2024-01-16T04:11:30.393Z,95260.00
2024-01-16T04:12:30.374Z,95258.00
2024-01-16T04:13:30.420Z,95258.00
2024-01-16T04:14:30.481Z,95258.00
2024-01-16T04:15:30.436Z,95257.00
2024-01-16T04:16:30.445Z,95258.00
2024-01-16T04:17:30.512Z,95256.00
2024-01-16T04:18:30.593Z,95256.00
2024-01-16T04:19:30.581Z,95256.00
2024-01-16T04:20:30.529Z,95257.00
2024-01-16T04:21:30.551Z,95257.00
2024-01-16T04:22:30.588Z,95257.00
2024-01-16T04:23:30.654Z,95258.00
2024-01-16T04:24:30.629Z,95261.00
2024-01-16T04:25:30.670Z,95262.00
2024-01-16T04:26:30.691Z,95263.00
2024-01-16T04:27:30.688Z,95266.00
2024-01-16T04:28:30.696Z,95266.00
2024-01-16T04:29:30.724Z,95266.00
2024-01-16T04:30:30.820Z,95267.00
2024-01-16T04:31:30.750Z,95267.00
2024-01-16T04:32:30.857Z,95268.00
2024-01-16T04:33:31.006Z,95266.00
2024-01-16T04:34:30.900Z,95266.00
2024-01-16T04:35:30.858Z,95267.00
2024-01-16T04:36:30.853Z,95265.00
2024-01-16T04:37:30.953Z,95263.00
2024-01-16T04:38:30.883Z,95264.00
2024-01-16T04:39:30.910Z,95263.00
2024-01-16T04:40:38.192Z,95265.00
2024-01-16T04:41:38.203Z,95264.00
2024-01-16T04:42:38.173Z,95271.00
2024-01-16T04:43:38.175Z,95271.00
2024-01-16T04:44:38.190Z,95271.00
2024-01-16T04:45:38.216Z,95271.00
2024-01-16T04:46:38.194Z,95273.00
2024-01-16T04:47:38.248Z,95271.00
2024-01-16T04:48:38.273Z,95265.00
2024-01-16T04:49:38.211Z,95263.00
2024-01-16T04:50:38.239Z,95260.00
2024-01-16T04:51:38.200Z,95261.00
2024-01-16T04:52:38.192Z,95263.00
2024-01-16T04:53:38.271Z,95261.00
2024-01-16T04:54:38.202Z,95262.00
2024-01-16T04:55:38.213Z,95259.00
2024-01-16T04:56:38.212Z,95260.00
2024-01-16T04:57:38.199Z,95259.00
2024-01-16T04:58:38.206Z,95260.00
2024-01-16T04:59:38.234Z,95260.00
2024-01-16T05:00:38.222Z,95259.00
2024-01-16T05:01:38.196Z,95258.00
2024-01-16T05:02:38.236Z,95260.00
2024-01-16T05:03:38.236Z,95260.00
2024-01-16T05:04:38.214Z,95260.00
2024-01-16T05:05:38.263Z,95263.00
2024-01-16T05:06:38.293Z,95268.00
2024-01-16T05:07:38.205Z,95264.00
2024-01-16T05:08:38.257Z,95264.00
2024-01-16T05:09:38.208Z,95265.00
2024-01-16T05:10:38.206Z,95265.00
2024-01-16T05:11:38.286Z,95269.00
2024-01-16T05:12:38.218Z,95272.00
2024-01-16T05:13:38.202Z,95274.00
2024-01-16T05:14:38.255Z,95275.00
2024-01-16T05:15:38.248Z,95276.00
2024-01-16T05:16:38.263Z,95278.00
2024-01-16T05:17:38.421Z,95280.00
2024-01-16T05:18:38.413Z,95283.00
2024-01-16T05:19:38.362Z,95281.00
2024-01-16T05:20:38.389Z,95280.00
2024-01-16T05:21:38.391Z,95277.00
2024-01-16T05:22:38.398Z,95278.00
2024-01-16T05:23:38.521Z,95279.00
2024-01-16T05:24:38.425Z,95282.00
2024-01-16T05:25:38.431Z,95285.00
2024-01-16T05:26:38.499Z,95283.00
2024-01-16T05:27:38.477Z,95282.00
2024-01-16T05:28:38.503Z,95282.00
2024-01-16T05:29:39.780Z,95279.00
2024-01-16T05:30:38.732Z,95281.00
2024-01-16T05:31:38.716Z,95280.00
2024-01-16T05:32:38.832Z,95282.00
2024-01-16T05:33:38.830Z,95283.00
2024-01-16T05:34:38.880Z,95281.00
2024-01-16T05:35:38.921Z,95282.00
2024-01-16T05:36:38.831Z,95283.00
2024-01-16T05:37:38.975Z,95283.00
2024-01-16T05:38:38.941Z,95285.00
2024-01-16T05:39:38.855Z,95286.00
2024-01-16T05:40:38.876Z,95287.00
2024-01-16T05:41:38.984Z,95290.00
2024-01-16T05:42:38.936Z,95291.00
2024-01-16T05:43:38.935Z,95290.00
2024-01-16T05:44:38.979Z,95288.00
2024-01-16T05:45:38.965Z,95289.00
2024-01-16T05:46:38.965Z,95289.00
2024-01-16T05:47:39.083Z,95289.00
2024-01-16T05:48:39.104Z,95289.00
2024-01-16T05:49:39.138Z,95291.00
2024-01-16T05:50:39.218Z,95291.00
2024-01-16T05:51:39.114Z,95292.00
2024-01-16T05:52:40.918Z,95291.00
2024-01-16T05:53:39.181Z,95290.00
2024-01-16T05:54:39.181Z,95289.00
2024-01-16T05:55:39.207Z,95289.00
2024-01-16T05:56:39.268Z,95291.00
2024-01-16T05:57:39.237Z,95291.00
2024-01-16T05:58:39.259Z,95293.00
2024-01-16T05:59:44.492Z,95289.00
2024-01-16T06:00:39.299Z,95289.00
2024-01-16T06:01:39.285Z,95296.00
2024-01-16T06:02:39.346Z,95292.00
2024-01-16T06:03:39.330Z,95292.00
2024-01-16T06:04:39.474Z,95291.00
2024-01-16T06:05:39.472Z,95291.00
2024-01-16T06:06:39.453Z,95291.00
2024-01-16T06:07:39.436Z,95291.00
2024-01-16T06:08:39.492Z,95294.00
2024-01-16T06:09:39.508Z,95295.00
2024-01-16T06:10:39.484Z,95295.00
2024-01-16T06:11:39.555Z,95297.00
2024-01-16T06:12:39.532Z,95296.00
2024-01-16T06:13:39.529Z,95302.00
2024-01-16T06:14:39.581Z,95302.00
2024-01-16T06:15:39.565Z,95303.00
2024-01-16T06:16:39.556Z,95305.00
2024-01-16T06:17:39.676Z,95309.00
2024-01-16T06:18:39.695Z,95309.00
2024-01-16T06:19:39.684Z,95311.00
2024-01-16T06:20:39.652Z,95312.00
2024-01-16T06:21:39.652Z,95308.00
2024-01-16T06:22:39.658Z,95307.00
2024-01-16T06:23:39.725Z,95305.00
2024-01-16T06:24:39.713Z,95302.00
2024-01-16T06:25:39.745Z,95303.00
2024-01-16T06:26:39.741Z,95305.00
2024-01-16T06:27:39.737Z,95306.00
2024-01-16T06:28:39.738Z,95302.00
2024-01-16T06:29:39.806Z,95300.00
2024-01-16T06:30:40.017Z,95304.00
2024-01-16T06:31:39.815Z,95301.00
2024-01-16T06:32:40.052Z,95303.00
2024-01-16T06:33:40.001Z,95303.00
2024-01-16T06:34:39.902Z,95302.00
2024-01-16T06:35:39.974Z,95302.00
2024-01-16T06:36:39.932Z,95304.00
2024-01-16T06:37:40.006Z,95301.00
2024-01-16T06:38:40.036Z,95302.00
2024-01-16T06:39:40.019Z,95308.00
2024-01-16T06:40:40.042Z,95309.00
2024-01-16T06:41:40.087Z,95309.00
2024-01-16T06:42:40.075Z,95305.00
2024-01-16T06:43:40.150Z,95306.00
2024-01-16T06:44:40.141Z,95306.00
2024-01-16T06:45:40.150Z,95307.00
2024-01-16T06:46:40.139Z,95307.00
2024-01-16T06:47:40.257Z,95310.00
2024-01-16T06:48:40.395Z,95302.00
2024-01-16T06:49:40.280Z,95301.00
2024-01-16T06:50:40.290Z,95296.00
2024-01-16T06:51:40.199Z,95301.00
2024-01-16T06:52:40.208Z,95300.00
2024-01-16T06:53:40.294Z,95300.00
2024-01-16T06:54:40.238Z,95301.00
2024-01-16T06:55:40.253Z,95300.00
2024-01-16T06:56:40.286Z,95300.00
2024-01-16T06:57:40.252Z,95298.00
2024-01-16T06:58:40.245Z,95301.00
2024-01-16T06:59:40.285Z,95299.00
2024-01-16T07:00:40.296Z,95299.00
2024-01-16T07:01:40.268Z,95289.00
2024-01-16T07:02:40.285Z,95298.00
2024-01-16T07:03:40.350Z,95298.00
2024-01-16T07:04:40.291Z,95298.00
2024-01-16T07:05:40.334Z,95301.00
2024-01-16T07:06:40.343Z,95302.00
2024-01-16T07:07:40.343Z,95305.00
2024-01-16T07:08:40.384Z,95303.00
2024-01-16T07:09:40.334Z,95301.00
2024-01-16T07:10:40.322Z,95302.00
2024-01-16T07:11:40.386Z,95302.00
2024-01-16T07:12:40.339Z,95301.00
2024-01-16T07:13:40.333Z,95298.00
2024-01-16T07:14:40.491Z,95298.00
2024-01-16T07:15:40.353Z,95297.00
2024-01-16T07:16:40.374Z,95298.00
2024-01-16T07:17:40.471Z,95300.00
2024-01-16T07:18:40.790Z,95306.00
2024-01-16T07:19:40.451Z,95307.00
2024-01-16T07:20:40.484Z,95305.00
2024-01-16T07:21:40.420Z,95307.00
2024-01-16T07:22:40.429Z,95307.00
2024-01-16T07:23:40.503Z,95308.00
2024-01-16T07:24:40.453Z,95307.00
2024-01-16T07:25:40.480Z,95305.00
2024-01-16T07:26:40.509Z,95305.00
2024-01-16T07:27:40.561Z,95305.00
2024-01-16T07:28:40.506Z,95306.00
2024-01-16T07:29:40.595Z,95309.00
2024-01-16T07:30:40.603Z,95309.00
2024-01-16T07:31:40.556Z,95310.00
2024-01-16T07:32:40.666Z,95308.00
2024-01-16T07:33:40.869Z,95307.00
2024-01-16T07:34:40.636Z,95308.00
2024-01-16T07:35:40.650Z,95307.00
2024-01-16T07:36:40.655Z,95302.00
2024-01-16T07:37:40.696Z,95303.00
2024-01-16T07:38:40.714Z,95308.00
2024-01-16T07:39:40.759Z,95304.00
2024-01-16T07:40:40.755Z,95307.00
2024-01-16T07:41:40.804Z,95311.00
2024-01-16T07:42:40.765Z,95306.00
2024-01-16T07:43:40.805Z,95305.00
2024-01-16T07:44:40.826Z,95303.00
2024-01-16T07:45:40.848Z,95303.00
2024-01-16T07:46:40.820Z,95305.00
2024-01-16T07:47:40.926Z,95308.00
2024-01-16T07:48:40.947Z,95313.00
2024-01-16T07:49:40.983Z,95307.00
2024-01-16T07:50:40.960Z,95303.00
2024-01-16T07:51:40.994Z,95310.00
2024-01-16T07:52:40.936Z,95305.00
2024-01-16T07:53:41.015Z,95307.00
2024-01-16T07:54:40.991Z,95307.00
2024-01-16T07:55:40.988Z,95309.00
2024-01-16T07:56:41.036Z,95311.00
2024-01-16T07:57:41.001Z,95311.00
2024-01-16T07:58:41.005Z,95313.00
2024-01-16T07:59:41.075Z,95316.00
2024-01-16T08:00:41.109Z,95313.00
2024-01-16T08:01:41.131Z,95311.00
2024-01-16T08:02:41.094Z,95311.00
2024-01-16T08:03:41.091Z,95312.00
2024-01-16T08:04:41.069Z,95314.00
2024-01-16T08:05:41.227Z,95315.00
2024-01-16T08:06:41.169Z,95315.00
2024-01-16T08:07:41.153Z,95315.00
2024-01-16T08:08:41.131Z,95317.00
2024-01-16T08:09:46.222Z,95316.00
2024-01-16T08:10:41.125Z,95318.00
2024-01-16T08:11:41.149Z,95316.00
2024-01-16T08:12:41.141Z,95318.00
2024-01-16T08:13:41.149Z,95321.00
2024-01-16T08:14:41.165Z,95322.00
2024-01-16T08:15:41.171Z,95322.00
2024-01-16T08:16:41.172Z,95324.00
2024-01-16T08:17:41.293Z,95321.00
2024-01-16T08:18:41.377Z,95323.00
2024-01-16T08:19:41.290Z,95324.00
2024-01-16T08:20:41.290Z,95324.00
2024-01-16T08:21:41.258Z,95320.00
2024-01-16T08:22:41.278Z,95320.00
2024-01-16T08:23:41.313Z,95319.00
2024-01-16T08:24:41.312Z,95318.00
2024-01-16T08:25:41.372Z,95318.00
2024-01-16T08:26:41.368Z,95318.00
2024-01-16T08:27:41.386Z,95317.00
2024-01-16T08:28:41.377Z,95316.00
2024-01-16T08:29:41.437Z,95318.00
2024-01-16T08:30:41.445Z,95317.00
2024-01-16T08:31:41.436Z,95315.00
2024-01-16T08:32:41.486Z,95316.00
2024-01-16T08:33:46.462Z,95316.00
2024-01-16T08:34:42.548Z,95314.00
2024-01-16T08:35:41.560Z,95317.00
2024-01-16T08:36:41.467Z,95315.00
2024-01-16T08:37:41.485Z,95316.00
2024-01-16T08:38:41.516Z,95317.00
2024-01-16T08:39:41.486Z,95316.00
2024-01-16T08:40:41.602Z,95314.00
2024-01-16T08:41:41.539Z,95313.00
2024-01-16T08:42:41.484Z,95312.00
2024-01-16T08:43:41.503Z,95310.00
2024-01-16T08:44:41.519Z,95311.00
2024-01-16T08:45:41.486Z,95312.00
2024-01-16T08:46:41.501Z,95311.00
2024-01-16T08:47:41.577Z,95311.00
2024-01-16T08:48:41.583Z,95305.00
2024-01-16T08:49:41.566Z,95306.00
2024-01-16T08:50:41.524Z,95304.00
2024-01-16T08:51:41.529Z,95304.00
2024-01-16T08:52:41.498Z,95303.00
2024-01-16T08:53:41.537Z,95300.00
2024-01-16T08:54:41.491Z,95297.00
2024-01-16T08:55:41.508Z,95297.00
2024-01-16T08:56:41.513Z,95298.00
2024-01-16T08:57:41.502Z,95297.00
2024-01-16T08:58:41.799Z,95297.00
2024-01-16T08:59:41.639Z,95294.00
2024-01-16T09:00:41.686Z,95290.00
2024-01-16T09:01:41.697Z,95290.00
2024-01-16T09:02:41.745Z,95292.00
2024-01-16T09:03:41.753Z,95291.00
2024-01-16T09:04:41.806Z,95288.00
2024-01-16T09:05:41.894Z,95285.00
2024-01-16T09:06:41.951Z,95284.00
2024-01-16T09:07:41.770Z,95288.00
2024-01-16T09:08:41.843Z,95285.00
2024-01-16T09:09:41.796Z,95285.00
2024-01-16T09:10:41.851Z,95286.00
2024-01-16T09:11:41.949Z,95289.00
2024-01-16T09:12:41.973Z,95290.00
2024-01-16T09:13:49.233Z,95287.00
2024-01-16T09:14:49.336Z,95288.00
2024-01-16T09:15:49.264Z,95290.00
2024-01-16T09:16:49.328Z,95294.00
2024-01-16T09:17:49.386Z,95293.00
2024-01-16T09:18:49.347Z,95295.00
2024-01-16T09:19:49.224Z,95296.00
2024-01-16T09:20:49.248Z,95296.00
2024-01-16T09:21:49.249Z,95294.00
2024-01-16T09:22:49.253Z,95293.00
2024-01-16T09:23:49.262Z,95294.00
2024-01-16T09:24:49.238Z,95292.00
2024-01-16T09:25:49.264Z,95293.00
2024-01-16T09:26:49.355Z,95294.00
2024-01-16T09:27:49.239Z,95295.00
2024-01-16T09:28:49.252Z,95297.00
2024-01-16T09:29:49.279Z,95292.00
2024-01-16T09:30:49.409Z,95291.00
2024-01-16T09:31:49.307Z,95292.00
2024-01-16T09:32:49.372Z,95294.00
2024-01-16T09:33:49.342Z,95289.00
2024-01-16T09:34:49.438Z,95291.00
2024-01-16T09:35:49.320Z,95292.00
2024-01-16T09:36:49.232Z,95292.00
2024-01-16T09:37:49.240Z,95300.00
2024-01-16T09:38:49.384Z,95300.00
2024-01-16T09:39:49.227Z,95297.00
2024-01-16T09:40:49.264Z,95296.00
2024-01-16T09:41:49.300Z,95291.00
2024-01-16T09:42:49.239Z,95294.00
2024-01-16T09:43:49.230Z,95297.00
2024-01-16T09:44:49.304Z,95295.00
2024-01-16T09:45:49.235Z,95288.00
2024-01-16T09:46:49.297Z,95286.00
2024-01-16T09:47:50.960Z,95285.00
2024-01-16T09:48:49.358Z,95285.00
2024-01-16T09:49:49.291Z,95282.00
2024-01-16T09:50:49.367Z,95279.00
2024-01-16T09:51:49.259Z,95278.00
2024-01-16T09:52:49.260Z,95277.00
2024-01-16T09:53:49.328Z,95276.00
2024-01-16T09:54:49.272Z,95273.00
2024-01-16T09:55:49.246Z,95266.00
2024-01-16T09:56:49.362Z,95264.00
2024-01-16T09:57:49.286Z,95261.00
2024-01-16T09:58:49.312Z,95259.00
2024-01-16T09:59:49.507Z,95256.00
2024-01-16T10:00:49.387Z,95250.00
2024-01-16T10:01:49.431Z,95244.00
2024-01-16T10:02:49.475Z,95245.00
2024-01-16T10:03:51.934Z,95242.00
2024-01-16T10:04:49.513Z,95240.00
2024-01-16T10:05:49.614Z,95237.00
2024-01-16T10:06:49.625Z,95234.00
2024-01-16T10:07:49.464Z,95230.00
2024-01-16T10:08:49.568Z,95230.00
2024-01-16T10:09:49.468Z,95228.00
2024-01-16T10:10:51.053Z,95225.00
2024-01-16T10:11:49.479Z,95223.00
2024-01-16T10:12:49.463Z,95224.00
2024-01-16T10:13:49.469Z,95224.00
2024-01-16T10:14:49.595Z,95226.00
2024-01-16T10:15:49.462Z,95225.00
2024-01-16T10:16:49.457Z,95225.00
2024-01-16T10:17:49.567Z,95223.00
2024-01-16T10:18:49.558Z,95222.00
2024-01-16T10:19:49.683Z,95220.00
2024-01-16T10:20:49.568Z,95220.00
2024-01-16T10:21:49.460Z,95218.00
2024-01-16T10:22:49.484Z,95216.00
2024-01-16T10:23:49.534Z,95214.00
2024-01-16T10:24:49.543Z,95211.00
2024-01-16T10:25:49.558Z,95205.00
2024-01-16T10:26:49.626Z,95204.00
2024-01-16T10:27:49.666Z,95199.00
2024-01-16T10:28:49.700Z,95198.00
2024-01-16T10:29:50.791Z,95201.00
2024-01-16T10:30:49.825Z,95200.00
2024-01-16T10:31:49.839Z,95196.00
2024-01-16T10:32:49.949Z,95199.00
2024-01-16T10:33:50.016Z,95198.00
2024-01-16T10:34:50.013Z,95197.00
2024-01-16T10:35:49.993Z,95198.00
2024-01-16T10:36:50.050Z,95196.00
2024-01-16T10:37:50.064Z,95198.00
2024-01-16T10:38:50.137Z,95194.00
2024-01-16T10:39:50.142Z,95192.00
2024-01-16T10:40:50.199Z,95192.00
2024-01-16T10:41:50.337Z,95192.00
2024-01-16T10:42:50.335Z,95192.00
2024-01-16T10:43:50.385Z,95192.00
2024-01-16T10:44:50.527Z,95192.00
2024-01-16T10:45:50.516Z,95192.00
2024-01-16T10:46:50.574Z,95191.00
2024-01-16T10:47:50.769Z,95189.00
2024-01-16T10:48:50.685Z,95182.00
2024-01-16T10:49:50.713Z,95180.00
2024-01-16T10:50:50.767Z,95181.00
2024-01-16T10:51:50.801Z,95182.00
2024-01-16T10:52:50.804Z,95182.00
2024-01-16T10:53:50.902Z,95188.00
2024-01-16T10:54:50.863Z,95186.00
2024-01-16T10:55:50.937Z,95187.00
2024-01-16T10:56:51.038Z,95185.00
2024-01-16T10:57:51.017Z,95186.00
2024-01-16T10:58:51.064Z,95184.00
2024-01-16T10:59:51.095Z,95182.00
2024-01-16T11:00:51.131Z,95184.00
2024-01-16T11:01:51.159Z,95181.00
2024-01-16T11:02:51.350Z,95178.00
2024-01-16T11:03:51.355Z,95181.00
2024-01-16T11:04:51.276Z,95177.00
2024-01-16T11:05:51.417Z,95176.00
2024-01-16T11:06:51.448Z,95175.00
2024-01-16T11:07:51.409Z,95174.00
2024-01-16T11:08:51.591Z,95174.00
2024-01-16T11:09:51.456Z,95169.00
2024-01-16T11:10:51.465Z,95172.00
2024-01-16T11:11:51.578Z,95173.00
2024-01-16T11:12:51.483Z,95174.00
2024-01-16T11:13:51.536Z,95170.00
2024-01-16T11:14:51.664Z,95167.00
2024-01-16T11:15:51.683Z,95166.00
2024-01-16T11:16:51.728Z,95166.00
2024-01-16T11:17:51.827Z,95167.00
2024-01-16T11:18:51.844Z,95168.00
2024-01-16T11:21:04.180Z,95161.00
2024-01-16T11:21:52.943Z,95158.00
2024-01-16T11:22:51.910Z,95156.00
2024-01-16T11:23:52.008Z,95156.00
2024-01-16T11:24:51.883Z,95154.00
2024-01-16T11:25:51.892Z,95151.00
2024-01-16T11:26:51.962Z,95154.00
2024-01-16T11:27:52.047Z,95151.00
2024-01-16T11:28:51.905Z,95153.00
2024-01-16T11:29:51.888Z,95156.00
2024-01-16T11:30:51.927Z,95148.00
2024-01-16T11:31:54.727Z,95140.00
2024-01-16T11:32:52.956Z,95141.00
2024-01-16T11:33:51.996Z,95141.00
2024-01-16T11:34:51.925Z,95142.00
2024-01-16T11:35:51.903Z,95140.00
2024-01-16T11:36:51.897Z,95142.00
2024-01-16T11:37:51.886Z,95137.00
2024-01-16T11:38:51.945Z,95138.00
2024-01-16T11:39:51.915Z,95134.00
2024-01-16T11:40:51.909Z,95135.00
2024-01-16T11:41:51.979Z,95132.00
2024-01-16T11:42:52.035Z,95134.00
2024-01-16T11:43:52.045Z,95129.00
2024-01-16T11:44:52.264Z,95128.00
2024-01-16T11:45:52.169Z,95127.00